createdAt,value
2018-12-15T00:00:49.630Z,0.34
2018-12-15T00:03:17.137Z,0.32
2018-12-15T00:05:44.711Z,0.27
2018-12-15T00:08:12.237Z,0.32
2018-12-15T00:10:39.732Z,0.33
2018-12-15T00:13:07.645Z,0.40
2018-12-15T00:15:35.449Z,0.32
2018-12-15T00:18:02.999Z,0.30
2018-12-15T00:20:30.499Z,0.37
2018-12-15T00:22:58.486Z,0.34
2018-12-15T00:25:25.983Z,0.28
2018-12-15T00:27:53.539Z,0.24
2018-12-15T00:30:21.067Z,0.24
2018-12-15T00:32:48.557Z,0.24
2018-12-15T00:35:16.025Z,0.24
2018-12-15T00:37:43.515Z,0.23
2018-12-15T00:40:10.999Z,0.21
2018-12-15T00:42:38.471Z,0.25
2018-12-15T00:45:06.088Z,0.26
2018-12-15T00:47:33.601Z,0.31
2018-12-15T00:50:01.211Z,0.24
2018-12-15T00:52:28.701Z,0.26
2018-12-15T00:54:56.178Z,0.28
2018-12-15T00:57:23.716Z,0.23
2018-12-15T00:59:51.301Z,0.27
2018-12-15T01:02:18.815Z,0.25
2018-12-15T01:04:46.265Z,0.26
2018-12-15T01:07:14.204Z,0.28
2018-12-15T01:09:41.686Z,0.29
2018-12-15T01:12:09.816Z,0.21
2018-12-15T01:14:37.282Z,0.21
2018-12-15T01:17:04.772Z,0.22
2018-12-15T01:19:32.263Z,0.27
2018-12-15T01:21:59.756Z,0.27
2018-12-15T01:24:27.250Z,0.27
2018-12-15T01:26:55.593Z,0.22
2018-12-15T01:29:23.057Z,0.26
2018-12-15T01:31:50.512Z,0.31
2018-12-15T01:34:18.036Z,0.29
2018-12-15T01:36:46.154Z,0.32
2018-12-15T01:39:13.641Z,0.30
2018-12-15T01:41:41.559Z,0.31
2018-12-15T01:44:09.064Z,0.32
2018-12-15T01:46:36.587Z,0.31
2018-12-15T01:49:04.168Z,0.31
2018-12-15T01:51:31.810Z,0.29
2018-12-15T01:53:59.312Z,0.31
2018-12-15T01:56:27.829Z,0.33
2018-12-15T01:58:55.308Z,0.41
2018-12-15T02:01:22.787Z,0.43
2018-12-15T02:03:50.252Z,0.29
2018-12-15T02:06:18.077Z,0.27
2018-12-15T02:08:45.633Z,0.29
2018-12-15T02:11:13.517Z,0.30
2018-12-15T02:13:41.049Z,0.30
2018-12-15T02:16:08.519Z,0.29
2018-12-15T02:18:35.998Z,0.30
2018-12-15T02:21:03.579Z,0.34
2018-12-15T02:23:31.098Z,0.34
2018-12-15T02:25:58.565Z,0.42
2018-12-15T02:28:26.115Z,0.38
2018-12-15T02:30:53.594Z,0.37
2018-12-15T02:33:21.058Z,0.34
2018-12-15T02:35:48.540Z,0.32
2018-12-15T02:38:16.053Z,0.24
2018-12-15T02:40:43.559Z,0.29
2018-12-15T02:43:11.109Z,0.25
2018-12-15T02:45:39.267Z,0.28
2018-12-15T02:48:06.752Z,0.28
2018-12-15T02:50:34.262Z,0.30
2018-12-15T02:53:01.830Z,0.30
2018-12-15T02:55:29.298Z,0.32
2018-12-15T02:57:57.700Z,0.37
2018-12-15T03:00:25.174Z,0.32
2018-12-15T03:02:52.697Z,0.33
2018-12-15T03:05:20.206Z,0.36
2018-12-15T03:07:47.674Z,0.37
2018-12-15T03:10:15.141Z,0.34
2018-12-15T03:12:42.623Z,0.42
2018-12-15T03:15:10.290Z,0.37
2018-12-15T03:17:37.815Z,0.39
2018-12-15T03:20:05.495Z,0.44
2018-12-15T03:22:32.980Z,0.44
2018-12-15T03:25:00.456Z,0.42
2018-12-15T03:27:28.637Z,0.45
2018-12-15T03:29:56.274Z,0.44
2018-12-15T03:32:23.756Z,0.45
2018-12-15T03:34:51.226Z,0.46
2018-12-15T03:37:18.950Z,0.50
2018-12-15T03:39:46.495Z,0.53
2018-12-15T03:42:14.045Z,0.51
2018-12-15T03:44:41.649Z,0.54
2018-12-15T03:47:09.127Z,0.48
2018-12-15T03:49:36.625Z,0.53
2018-12-15T03:52:04.294Z,0.56
2018-12-15T03:54:31.786Z,0.56
2018-12-15T03:56:59.254Z,0.53
2018-12-15T03:59:27.114Z,0.56
2018-12-15T04:01:54.649Z,0.55
2018-12-15T04:04:22.193Z,0.56
2018-12-15T04:06:49.662Z,0.52
2018-12-15T04:09:17.168Z,0.50
2018-12-15T04:11:44.664Z,0.51
2018-12-15T04:14:12.151Z,0.58
2018-12-15T04:16:39.630Z,0.52
2018-12-15T04:19:07.251Z,0.52
2018-12-15T04:21:35.107Z,0.53
2018-12-15T04:24:02.973Z,0.55
2018-12-15T04:26:30.463Z,0.57
2018-12-15T04:28:58.443Z,0.52
2018-12-15T04:31:25.929Z,0.57
2018-12-15T04:33:53.437Z,0.52
2018-12-15T04:36:21.008Z,0.57
2018-12-15T04:38:48.487Z,0.50
2018-12-15T04:41:16.031Z,0.56
2018-12-15T04:43:43.554Z,0.56
2018-12-15T04:46:12.505Z,0.52
2018-12-15T04:48:40.025Z,0.44
2018-12-15T04:51:07.584Z,0.50
2018-12-15T04:53:35.311Z,0.48
2018-12-15T04:56:02.823Z,0.50
2018-12-15T04:58:30.289Z,0.54
2018-12-15T05:00:57.828Z,0.53
2018-12-15T05:03:25.352Z,0.51
2018-12-15T05:05:52.836Z,0.56
2018-12-15T05:08:20.355Z,0.53
2018-12-15T05:10:47.852Z,0.54
2018-12-15T05:13:15.914Z,0.56
2018-12-15T05:15:43.389Z,0.51
2018-12-15T05:18:18.017Z,0.49
2018-12-15T05:20:41.165Z,0.53
2018-12-15T05:23:08.678Z,0.53
2018-12-15T05:25:36.607Z,0.55
2018-12-15T05:28:04.196Z,0.55
2018-12-15T05:30:31.675Z,0.56
2018-12-15T05:32:59.273Z,0.57
2018-12-15T05:35:26.831Z,0.50
2018-12-15T05:37:54.307Z,0.46
2018-12-15T05:40:22.366Z,0.51
2018-12-15T05:42:49.844Z,0.48
2018-12-15T05:45:19.131Z,0.46
2018-12-15T05:47:46.680Z,0.48
2018-12-15T05:50:14.164Z,0.42
2018-12-15T05:52:41.632Z,0.50
2018-12-15T05:55:09.139Z,0.46
2018-12-15T05:57:36.967Z,0.49
2018-12-15T06:00:08.052Z,0.49
2018-12-15T06:02:35.996Z,0.40
2018-12-15T06:05:04.446Z,0.42
2018-12-15T06:07:32.391Z,0.43
2018-12-15T06:09:59.924Z,0.46
2018-12-15T06:12:27.405Z,0.46
2018-12-15T06:14:54.900Z,0.42
2018-12-15T06:17:22.441Z,0.51
2018-12-15T06:19:49.925Z,0.52
2018-12-15T06:22:17.451Z,0.47
2018-12-15T06:24:44.923Z,0.51
2018-12-15T06:27:12.415Z,0.45
2018-12-15T06:29:39.920Z,0.44
2018-12-15T06:32:07.433Z,0.39
2018-12-15T06:34:34.926Z,0.40
2018-12-15T06:37:02.390Z,0.37
2018-12-15T06:39:29.849Z,0.41
2018-12-15T06:41:57.351Z,0.44
2018-12-15T06:44:24.819Z,0.34
2018-12-15T06:46:52.337Z,0.35
2018-12-15T06:49:19.797Z,0.41
2018-12-15T06:51:48.074Z,0.34
2018-12-15T06:54:15.712Z,0.38
2018-12-15T06:56:44.622Z,0.39
2018-12-15T06:59:12.183Z,0.39
2018-12-15T07:01:42.299Z,0.38
2018-12-15T07:04:10.380Z,0.40
2018-12-15T07:06:39.245Z,0.32
2018-12-15T07:09:07.826Z,0.36
2018-12-15T07:11:36.044Z,0.36
2018-12-15T07:14:03.680Z,0.37
2018-12-15T07:16:31.353Z,0.31
2018-12-15T07:18:59.332Z,0.35
2018-12-15T07:21:26.803Z,0.39
2018-12-15T07:23:59.868Z,0.40
2018-12-15T07:26:27.337Z,0.37
2018-12-15T07:28:54.887Z,0.39
2018-12-15T07:31:22.590Z,0.35
2018-12-15T07:33:50.098Z,0.35
2018-12-15T07:36:17.617Z,0.40
2018-12-15T07:38:45.112Z,0.38
2018-12-15T07:41:12.603Z,0.37
2018-12-15T07:43:40.235Z,0.40
2018-12-15T07:46:07.814Z,0.40
2018-12-15T07:48:35.287Z,0.42
2018-12-15T07:51:02.808Z,0.39
2018-12-15T07:53:30.477Z,0.43
2018-12-15T07:55:57.956Z,0.42
2018-12-15T07:58:25.587Z,0.48
2018-12-15T08:00:53.088Z,0.47
2018-12-15T08:03:21.341Z,0.47
2018-12-15T08:05:48.819Z,0.47
2018-12-15T08:08:21.081Z,0.48
2018-12-15T08:10:54.067Z,0.45
2018-12-15T08:13:24.250Z,0.44
2018-12-15T08:15:51.743Z,0.42
2018-12-15T08:18:19.307Z,0.46
2018-12-15T08:20:46.829Z,0.47
2018-12-15T08:23:19.816Z,0.51
2018-12-15T08:25:47.340Z,0.52
2018-12-15T08:28:15.001Z,0.54
2018-12-15T08:30:42.498Z,0.51
2018-12-15T08:33:10.830Z,0.57
2018-12-15T08:35:38.305Z,0.54
2018-12-15T08:38:05.920Z,0.60
2018-12-15T08:40:33.620Z,0.59
2018-12-15T08:43:01.179Z,0.64
2018-12-15T08:45:28.754Z,0.59
2018-12-15T08:47:56.801Z,0.63
2018-12-15T08:50:24.289Z,0.58
2018-12-15T08:52:52.155Z,0.59
2018-12-15T08:55:19.764Z,0.58
2018-12-15T08:57:47.294Z,0.60
2018-12-15T09:00:14.795Z,0.60
2018-12-15T09:02:42.279Z,0.64
2018-12-15T09:05:09.789Z,0.57
2018-12-15T09:07:37.276Z,0.59
2018-12-15T09:10:07.151Z,0.55
2018-12-15T09:12:34.749Z,0.59
2018-12-15T09:15:02.280Z,0.61
2018-12-15T09:17:29.864Z,0.66
2018-12-15T09:19:57.350Z,0.67
2018-12-15T09:22:32.931Z,0.62
2018-12-15T09:25:00.396Z,0.63
2018-12-15T09:27:27.951Z,0.61
2018-12-15T09:29:55.538Z,0.63
2018-12-15T09:32:23.171Z,0.60
2018-12-15T09:34:52.137Z,0.57
2018-12-15T09:37:19.721Z,0.65
2018-12-15T09:39:47.316Z,0.63
2018-12-15T09:42:14.839Z,0.64
2018-12-15T09:44:42.613Z,0.60
2018-12-15T09:47:10.967Z,0.69
2018-12-15T09:49:38.540Z,0.70
2018-12-15T09:52:06.001Z,0.67
2018-12-15T09:54:36.517Z,0.66
2018-12-15T09:57:04.645Z,0.75
2018-12-15T09:59:32.195Z,0.79
2018-12-15T10:01:59.762Z,0.74
2018-12-15T10:04:27.259Z,0.77
2018-12-15T10:06:54.860Z,0.74
2018-12-15T10:09:22.351Z,0.70
2018-12-15T10:11:49.828Z,0.74
2018-12-15T10:14:17.338Z,0.70
2018-12-15T10:16:45.087Z,0.66
2018-12-15T10:19:12.582Z,0.60
2018-12-15T10:21:40.054Z,0.67
2018-12-15T10:24:07.549Z,0.63
2018-12-15T10:26:35.035Z,0.65
2018-12-15T10:29:03.612Z,0.61
2018-12-15T10:31:36.935Z,0.61
2018-12-15T10:34:04.913Z,0.56
2018-12-15T10:36:32.521Z,0.51
2018-12-15T10:39:00.128Z,0.52
2018-12-15T10:41:27.733Z,0.56
2018-12-15T10:43:55.240Z,0.54
2018-12-15T10:46:22.713Z,0.50
2018-12-15T10:48:50.177Z,0.50
2018-12-15T10:51:17.744Z,0.50
2018-12-15T10:53:45.674Z,0.57
2018-12-15T10:56:13.973Z,0.48
2018-12-15T10:58:41.471Z,0.52
2018-12-15T11:01:23.501Z,0.48
2018-12-15T11:03:51.089Z,0.32
2018-12-15T11:06:18.760Z,0.33
2018-12-15T11:08:46.243Z,0.28
2018-12-15T11:11:13.744Z,0.29
2018-12-15T11:13:41.221Z,0.37
2018-12-15T11:16:08.807Z,0.33
2018-12-15T11:18:36.351Z,0.39
2018-12-15T11:21:03.821Z,0.40
2018-12-15T11:23:31.352Z,0.38
2018-12-15T11:25:58.835Z,0.22
2018-12-15T11:28:26.366Z,0.17
2018-12-15T11:30:53.818Z,0.25
2018-12-15T11:33:21.323Z,0.25
2018-12-15T11:35:48.797Z,0.30
2018-12-15T11:38:16.305Z,0.31
2018-12-15T11:40:43.880Z,0.30
2018-12-15T11:43:11.379Z,0.23
2018-12-15T11:45:38.931Z,0.31
2018-12-15T11:48:06.576Z,0.30
2018-12-15T11:50:34.151Z,0.30
2018-12-15T11:53:01.691Z,0.30
2018-12-15T11:55:29.249Z,0.25
2018-12-15T11:57:56.766Z,0.34
2018-12-15T12:00:24.329Z,0.21
2018-12-15T12:02:51.912Z,0.15
2018-12-15T12:05:19.443Z,0.29
2018-12-15T12:07:47.027Z,0.28
2018-12-15T12:10:14.626Z,0.23
2018-12-15T12:12:42.237Z,0.30
2018-12-15T12:15:09.783Z,0.23
2018-12-15T12:17:37.262Z,0.27
2018-12-15T12:20:06.721Z,0.27
2018-12-15T12:22:34.332Z,0.22
2018-12-15T12:25:01.867Z,0.19
2018-12-15T12:27:29.360Z,0.28
2018-12-15T12:29:56.909Z,0.20
2018-12-15T12:32:24.987Z,0.27
2018-12-15T12:34:53.253Z,0.32
2018-12-15T12:37:20.732Z,0.28
2018-12-15T12:39:48.222Z,0.29
2018-12-15T12:42:15.741Z,0.39
2018-12-15T12:44:43.310Z,0.39
2018-12-15T12:47:10.794Z,0.26
2018-12-15T12:49:38.316Z,0.36
2018-12-15T12:52:05.823Z,0.27
2018-12-15T12:54:33.884Z,0.26
2018-12-15T12:57:01.390Z,0.29
2018-12-15T12:59:29.412Z,0.30
2018-12-15T13:01:57.420Z,0.25
2018-12-15T13:04:24.917Z,0.30
2018-12-15T13:06:54.281Z,0.41
2018-12-15T13:09:21.790Z,0.39
2018-12-15T13:11:49.280Z,0.35
2018-12-15T13:14:16.749Z,0.38
2018-12-15T13:16:44.270Z,0.33
2018-12-15T13:19:11.772Z,0.31
2018-12-15T13:21:39.262Z,0.41
2018-12-15T13:24:06.866Z,0.40
2018-12-15T13:26:34.363Z,0.33
2018-12-15T13:29:02.177Z,0.38
2018-12-15T13:31:29.686Z,0.38
2018-12-15T13:33:57.156Z,0.36
2018-12-15T13:36:24.691Z,0.32
2018-12-15T13:38:52.271Z,0.32
2018-12-15T13:41:20.441Z,0.36
2018-12-15T13:43:47.922Z,0.38
2018-12-15T13:46:15.651Z,0.34
2018-12-15T13:48:43.105Z,0.29
2018-12-15T13:51:10.651Z,0.32
2018-12-15T13:53:38.102Z,0.34
2018-12-15T13:56:06.139Z,0.31
2018-12-15T13:58:33.755Z,0.32
2018-12-15T14:01:02.397Z,0.36
2018-12-15T14:03:29.947Z,0.32
2018-12-15T14:05:57.445Z,0.32
2018-12-15T14:08:25.066Z,0.27
2018-12-15T14:10:52.665Z,0.29
2018-12-15T14:13:20.185Z,0.31
2018-12-15T14:15:47.686Z,0.33
2018-12-15T14:18:15.308Z,0.29
2018-12-15T14:20:43.274Z,0.33
2018-12-15T14:23:10.800Z,0.37
2018-12-15T14:25:39.055Z,0.34
2018-12-15T14:28:06.824Z,0.28
2018-12-15T14:30:34.560Z,0.32
2018-12-15T14:33:03.266Z,0.29
2018-12-15T14:35:31.074Z,0.26
2018-12-15T14:37:58.649Z,0.23
2018-12-15T14:40:26.623Z,0.19
2018-12-15T14:42:54.988Z,0.23
2018-12-15T14:45:22.910Z,0.18
2018-12-15T14:47:52.063Z,0.18
2018-12-15T14:50:23.552Z,0.16
2018-12-15T14:52:50.777Z,0.13
2018-12-15T14:55:19.591Z,0.06
2018-12-15T14:57:47.418Z,0.06
2018-12-15T15:00:15.225Z,0.01
2018-12-15T15:02:43.661Z,-0.08
2018-12-15T15:05:12.488Z,-0.02
2018-12-15T15:07:44.131Z,-0.01
2018-12-15T15:10:12.031Z,0.03
2018-12-15T15:12:39.828Z,0.02
2018-12-15T15:15:07.420Z,0.03
2018-12-15T15:17:35.268Z,0.02
2018-12-15T15:20:05.911Z,-0.03
2018-12-15T15:22:34.079Z,0.09
2018-12-15T15:25:01.843Z,0.01
2018-12-15T15:27:46.998Z,-0.02
2018-12-15T15:30:14.663Z,0.02
2018-12-15T15:32:42.339Z,-0.02
2018-12-15T15:35:11.531Z,0.06
2018-12-15T15:37:39.020Z,0.08
2018-12-15T15:40:07.815Z,0.10
2018-12-15T15:42:36.825Z,0.06
2018-12-15T15:45:05.461Z,0.08
2018-12-15T15:47:33.107Z,-0.05
2018-12-15T15:50:02.263Z,-0.07
2018-12-15T15:52:29.972Z,-0.03
2018-12-15T15:54:57.720Z,-0.04
2018-12-15T15:57:25.437Z,0.02
2018-12-15T15:59:53.911Z,0.02
2018-12-15T16:02:21.650Z,0.01
2018-12-15T16:04:49.448Z,0.02
2018-12-15T16:07:17.190Z,-0.03
2018-12-15T16:09:45.205Z,0.04
2018-12-15T16:12:13.226Z,0.06
2018-12-15T16:14:41.108Z,0.02
2018-12-15T16:17:08.973Z,0.03
2018-12-15T16:19:36.616Z,0.05
2018-12-15T16:22:05.031Z,0.02
2018-12-15T16:24:33.221Z,0.05
2018-12-15T16:27:01.057Z,0.01
2018-12-15T16:29:28.899Z,0.02
2018-12-15T16:31:56.701Z,-0.05
2018-12-15T16:34:25.171Z,-0.06
2018-12-15T16:36:53.488Z,-0.02
2018-12-15T16:39:21.223Z,-0.06
2018-12-15T16:41:49.431Z,-0.09
2018-12-15T16:44:17.383Z,-0.09
2018-12-15T16:46:45.146Z,-0.09
2018-12-15T16:49:12.677Z,-0.10
2018-12-15T16:51:40.278Z,-0.11
2018-12-15T16:54:08.076Z,-0.09
2018-12-15T16:56:36.217Z,-0.12
2018-12-15T16:59:05.053Z,-0.11
2018-12-15T17:01:34.750Z,-0.08
2018-12-15T17:04:02.608Z,-0.11
2018-12-15T17:06:31.027Z,-0.11
2018-12-15T17:09:00.826Z,-0.14
2018-12-15T17:11:28.947Z,-0.09
2018-12-15T17:13:57.465Z,-0.10
2018-12-15T17:16:25.106Z,-0.14
2018-12-15T17:18:52.808Z,-0.13
2018-12-15T17:21:20.562Z,-0.16
2018-12-15T17:23:49.105Z,-0.12
2018-12-15T17:26:16.725Z,-0.12
2018-12-15T17:28:44.398Z,-0.16
2018-12-15T17:31:12.185Z,-0.14
2018-12-15T17:33:39.665Z,-0.18
2018-12-15T17:36:07.193Z,-0.12
2018-12-15T17:38:34.705Z,-0.11
2018-12-15T17:41:02.209Z,-0.17
2018-12-15T17:43:29.696Z,-0.16
2018-12-15T17:45:58.345Z,-0.21
2018-12-15T17:48:26.197Z,-0.16
2018-12-15T17:50:54.702Z,-0.18
2018-12-15T17:53:22.552Z,-0.21
2018-12-15T17:55:50.129Z,-0.19
2018-12-15T17:58:19.582Z,-0.18
2018-12-15T18:00:48.233Z,-0.20
2018-12-15T18:03:16.867Z,-0.19
2018-12-15T18:05:44.734Z,-0.20
2018-12-15T18:08:12.900Z,-0.18
2018-12-15T18:10:41.696Z,-0.21
2018-12-15T18:13:09.410Z,-0.22
2018-12-15T18:15:37.044Z,-0.19
2018-12-15T18:18:04.556Z,-0.22
2018-12-15T18:20:32.363Z,-0.20
2018-12-15T18:23:00.953Z,-0.20
2018-12-15T18:25:28.430Z,-0.19
2018-12-15T18:27:56.741Z,-0.16
2018-12-15T18:30:24.466Z,-0.19
2018-12-15T18:32:52.215Z,-0.22
2018-12-15T18:35:19.917Z,-0.20
2018-12-15T18:37:48.612Z,-0.18
2018-12-15T18:40:16.336Z,-0.23
2018-12-15T18:42:44.410Z,-0.18
2018-12-15T18:45:12.259Z,-0.24
2018-12-15T18:47:40.047Z,-0.19
2018-12-15T18:50:08.867Z,-0.15
2018-12-15T18:52:37.147Z,-0.15
2018-12-15T18:55:06.042Z,-0.17
2018-12-15T18:57:34.523Z,-0.19
2018-12-15T19:00:02.292Z,-0.16
2018-12-15T19:02:29.956Z,-0.16
2018-12-15T19:04:57.450Z,-0.17
2018-12-15T19:07:25.126Z,-0.14
2018-12-15T19:09:52.935Z,-0.15
2018-12-15T19:12:20.756Z,-0.12
2018-12-15T19:14:48.623Z,-0.12
2018-12-15T19:17:16.290Z,-0.09
2018-12-15T19:19:43.991Z,-0.12
2018-12-15T19:22:11.724Z,-0.12
2018-12-15T19:24:40.490Z,-0.10
2018-12-15T19:27:09.191Z,-0.11
2018-12-15T19:29:38.087Z,-0.13
2018-12-15T19:32:05.846Z,-0.13
2018-12-15T19:34:33.584Z,-0.12
2018-12-15T19:37:02.915Z,-0.16
2018-12-15T19:39:30.664Z,-0.15
2018-12-15T19:41:58.809Z,-0.11
2018-12-15T19:44:28.076Z,-0.13
2018-12-15T19:46:56.239Z,-0.18
2018-12-15T19:49:25.007Z,-0.16
2018-12-15T19:51:52.714Z,-0.15
2018-12-15T19:54:20.424Z,-0.15
2018-12-15T19:56:48.289Z,-0.10
2018-12-15T19:59:17.097Z,-0.08
2018-12-15T20:01:45.486Z,-0.13
2018-12-15T20:04:13.242Z,-0.10
2018-12-15T20:06:40.977Z,-0.11
2018-12-15T20:09:08.635Z,-0.12
2018-12-15T20:11:37.765Z,-0.11
2018-12-15T20:14:05.631Z,-0.13
2018-12-15T20:16:33.980Z,-0.11
2018-12-15T20:19:02.018Z,-0.12
2018-12-15T20:21:35.991Z,-0.16
2018-12-15T20:24:02.832Z,-0.17
2018-12-15T20:26:30.424Z,-0.16
2018-12-15T20:28:58.672Z,-0.12
2018-12-15T20:31:26.360Z,-0.11
2018-12-15T20:33:54.247Z,-0.08
2018-12-15T20:36:21.747Z,-0.08
2018-12-15T20:38:49.335Z,-0.07
2018-12-15T20:41:17.082Z,-0.04
2018-12-15T20:43:45.569Z,-0.07
2018-12-15T20:46:14.753Z,-0.04
2018-12-15T20:48:42.452Z,-0.04
2018-12-15T20:51:11.568Z,-0.07
2018-12-15T20:53:39.805Z,-0.15
2018-12-15T20:56:07.443Z,-0.20
2018-12-15T20:58:37.263Z,-0.28
2018-12-15T21:01:05.675Z,-0.32
2018-12-15T21:03:33.228Z,-0.41
2018-12-15T21:06:01.509Z,-0.44
2018-12-15T21:08:28.989Z,-0.51
2018-12-15T21:10:56.505Z,-0.56
2018-12-15T21:13:23.995Z,-0.63
2018-12-15T21:15:53.758Z,-0.66
2018-12-15T21:18:22.171Z,-0.67
2018-12-15T21:20:49.935Z,-0.74
2018-12-15T21:23:18.398Z,-0.77
2018-12-15T21:25:45.863Z,-0.79
2018-12-15T21:28:14.182Z,-0.85
2018-12-15T21:30:41.775Z,-0.87
2018-12-15T21:33:09.480Z,-0.89
2018-12-15T21:35:37.106Z,-0.90
2018-12-15T21:38:04.720Z,-0.90
2018-12-15T21:40:32.325Z,-0.95
2018-12-15T21:42:59.939Z,-0.93
2018-12-15T21:45:28.688Z,-0.95
2018-12-15T21:47:57.839Z,-0.95
2018-12-15T21:50:25.885Z,-1.04
2018-12-15T21:52:55.208Z,-1.00
2018-12-15T21:55:25.281Z,-1.06
2018-12-15T21:57:58.255Z,-1.06
2018-12-15T22:00:26.429Z,-1.08
2018-12-15T22:02:54.660Z,-1.07
2018-12-15T22:05:22.127Z,-1.13
2018-12-15T22:07:50.056Z,-1.14
2018-12-15T22:10:17.563Z,-1.15
2018-12-15T22:12:45.050Z,-1.22
2018-12-15T22:15:12.598Z,-1.24
2018-12-15T22:17:40.201Z,-1.27
2018-12-15T22:20:09.891Z,-1.27
2018-12-15T22:22:37.438Z,-1.30
2018-12-15T22:25:05.429Z,-1.32
2018-12-15T22:27:32.938Z,-1.30
2018-12-15T22:30:01.071Z,-1.34
2018-12-15T22:32:28.547Z,-1.36
2018-12-15T22:34:56.077Z,-1.33
2018-12-15T22:37:23.554Z,-1.33
2018-12-15T22:39:51.034Z,-1.30
2018-12-15T22:42:18.556Z,-1.29
2018-12-15T22:44:46.038Z,-1.28
2018-12-15T22:47:13.751Z,-1.21
2018-12-15T22:49:41.692Z,-1.20
2018-12-15T22:52:09.941Z,-1.13
2018-12-15T22:54:37.793Z,-1.16
2018-12-15T22:57:05.280Z,-1.13
2018-12-15T22:59:32.986Z,-1.09
2018-12-15T23:02:00.525Z,-1.08
2018-12-15T23:04:28.108Z,-1.06
2018-12-15T23:06:55.600Z,-1.04
2018-12-15T23:09:23.079Z,-1.04
2018-12-15T23:11:50.557Z,-1.04
2018-12-15T23:14:18.497Z,-1.05
2018-12-15T23:16:46.064Z,-1.08
2018-12-15T23:19:13.676Z,-1.05
2018-12-15T23:21:41.309Z,-1.11
2018-12-15T23:24:08.806Z,-1.10
2018-12-15T23:26:36.348Z,-1.15
2018-12-15T23:29:04.352Z,-1.18
2018-12-15T23:31:31.859Z,-1.19
2018-12-15T23:33:59.409Z,-1.19
2018-12-15T23:36:26.943Z,-1.18
2018-12-15T23:38:54.423Z,-1.22
2018-12-15T23:41:21.896Z,-1.19
2018-12-15T23:43:49.804Z,-1.19
2018-12-15T23:46:17.315Z,-1.20
2018-12-15T23:48:44.840Z,-1.22
2018-12-15T23:51:12.320Z,-1.17
2018-12-15T23:53:39.866Z,-1.24
2018-12-15T23:56:07.507Z,-1.20
2018-12-15T23:58:35.516Z,-1.16
